createdAt,value
2023-02-23T00:02:06.603Z,35.42
2023-02-23T00:04:35.308Z,36.10
2023-02-23T00:07:02.345Z,34.78
2023-02-23T00:09:35.490Z,35.05
2023-02-23T00:12:07.755Z,36.15
2023-02-23T00:14:37.630Z,34.50
2023-02-23T00:17:05.077Z,36.63
2023-02-23T00:19:33.631Z,35.70
2023-02-23T00:22:01.282Z,37.25
2023-02-23T00:24:28.073Z,36.28
2023-02-23T00:26:55.085Z,37.58
2023-02-23T00:29:23.878Z,37.67
2023-02-23T00:31:52.088Z,37.53
2023-02-23T00:34:23.704Z,38.88
2023-02-23T00:36:54.127Z,38.35
2023-02-23T00:39:26.794Z,39.47
2023-02-23T00:41:55.353Z,38.80
2023-02-23T00:44:24.078Z,39.60
2023-02-23T00:46:52.012Z,39.35
2023-02-23T00:49:20.429Z,39.35
2023-02-23T00:51:47.473Z,39.25
2023-02-23T00:54:15.642Z,38.95
2023-02-23T00:56:43.016Z,38.22
2023-02-23T00:59:10.865Z,38.90
2023-02-23T01:01:38.736Z,39.38
2023-02-23T01:04:07.352Z,41.42
2023-02-23T01:06:37.572Z,42.58
2023-02-23T01:09:09.281Z,43.33
2023-02-23T01:11:36.026Z,42.85
2023-02-23T01:14:03.165Z,46.35
2023-02-23T01:16:33.178Z,47.65
2023-02-23T01:19:03.506Z,48.10
2023-02-23T01:21:36.077Z,48.10
2023-02-23T01:24:03.428Z,51.03
2023-02-23T01:26:36.418Z,51.13
2023-02-23T01:29:12.681Z,49.70
2023-02-23T01:31:42.084Z,49.65
2023-02-23T01:34:11.917Z,51.67
2023-02-23T01:36:40.265Z,52.78
2023-02-23T01:39:12.183Z,48.88
2023-02-23T01:41:42.559Z,52.85
2023-02-23T01:44:15.387Z,51.92
2023-02-23T01:46:45.555Z,50.17
2023-02-23T01:49:17.718Z,48.78
2023-02-23T01:51:48.569Z,50.35
2023-02-23T01:54:29.059Z,47.45
2023-02-23T01:56:58.482Z,45.80
2023-02-23T01:59:35.200Z,46.45
2023-02-23T02:02:05.621Z,46.22
2023-02-23T02:04:44.602Z,47.33
2023-02-23T02:07:18.051Z,47.95
2023-02-23T02:10:09.763Z,46.03
2023-02-23T02:12:41.442Z,45.40
2023-02-23T02:15:17.156Z,44.55
2023-02-23T02:17:59.569Z,46.50
2023-02-23T02:20:32.759Z,44.25
2023-02-23T02:23:11.686Z,45.95
2023-02-23T02:26:09.873Z,44.88
2023-02-23T02:28:54.930Z,45.15
2023-02-23T02:31:28.024Z,45.30
2023-02-23T02:34:33.682Z,45.65
2023-02-23T02:37:24.508Z,43.10
2023-02-23T02:40:22.433Z,46.72
2023-02-23T02:43:24.102Z,43.45
2023-02-23T02:46:03.651Z,42.55
2023-02-23T02:48:37.239Z,42.92
2023-02-23T02:51:24.865Z,42.30
2023-02-23T02:54:10.616Z,43.35
2023-02-23T02:56:43.944Z,43.10
2023-02-23T02:59:33.253Z,46.67
2023-02-23T03:02:18.594Z,42.40
2023-02-23T03:05:03.944Z,42.35
2023-02-23T03:08:02.550Z,44.72
2023-02-23T03:11:00.139Z,44.70
2023-02-23T03:14:12.317Z,44.70
2023-02-23T03:16:57.797Z,43.92
2023-02-23T03:19:55.359Z,46.08
2023-02-23T03:22:46.979Z,45.58
2023-02-23T03:25:40.139Z,46.15
2023-02-23T03:28:33.502Z,44.17
2023-02-23T03:31:25.873Z,44.55
2023-02-23T03:34:28.320Z,44.55
2023-02-23T03:37:32.120Z,43.85
2023-02-23T03:40:29.685Z,45.03
2023-02-23T03:43:18.338Z,46.72
2023-02-23T03:46:07.200Z,46.13
2023-02-23T03:48:55.141Z,46.45
2023-02-23T03:51:43.479Z,45.13
2023-02-23T03:54:34.479Z,46.58
2023-02-23T03:57:24.248Z,45.42
2023-02-23T04:00:16.500Z,43.05
2023-02-23T04:03:06.066Z,44.22
2023-02-23T04:05:55.541Z,45.90
2023-02-23T04:08:46.853Z,43.60
2023-02-23T04:12:03.057Z,42.78
2023-02-23T04:14:42.998Z,41.73
2023-02-23T04:17:12.316Z,41.60
2023-02-23T04:19:38.937Z,41.90
2023-02-23T04:22:05.573Z,43.47
2023-02-23T04:24:32.112Z,45.90
2023-02-23T04:26:58.844Z,42.72
2023-02-23T04:29:25.492Z,45.35
2023-02-23T04:31:54.126Z,45.55
2023-02-23T04:34:21.110Z,45.08
2023-02-23T04:36:47.957Z,46.40
2023-02-23T04:39:14.590Z,46.97
2023-02-23T04:41:41.232Z,48.08
2023-02-23T04:44:07.863Z,47.47
2023-02-23T04:46:34.399Z,46.90
2023-02-23T04:49:01.088Z,46.30
2023-02-23T04:51:32.313Z,45.20
2023-02-23T04:53:59.016Z,47.20
2023-02-23T04:56:26.066Z,46.72
2023-02-23T04:58:52.704Z,48.03
2023-02-23T05:01:21.015Z,46.72
2023-02-23T05:03:49.054Z,47.00
2023-02-23T05:06:16.500Z,46.28
2023-02-23T05:08:43.443Z,44.53
2023-02-23T05:11:10.495Z,46.92
2023-02-23T05:13:37.130Z,47.33
2023-02-23T05:16:04.356Z,46.22
2023-02-23T05:18:31.120Z,45.42
2023-02-23T05:21:07.093Z,46.47
2023-02-23T05:23:35.007Z,45.75
2023-02-23T05:26:04.267Z,46.47
2023-02-23T05:28:30.982Z,43.28
2023-02-23T05:30:57.751Z,44.50
2023-02-23T05:33:24.556Z,44.28
2023-02-23T05:35:51.195Z,44.75
2023-02-23T05:38:17.940Z,44.67
2023-02-23T05:40:44.561Z,45.05
2023-02-23T05:43:11.204Z,44.13
2023-02-23T05:45:42.142Z,44.35
2023-02-23T05:48:10.208Z,42.88
2023-02-23T05:50:37.156Z,42.08
2023-02-23T05:53:03.993Z,42.67
2023-02-23T05:55:30.839Z,43.55
2023-02-23T05:57:57.469Z,43.47
2023-02-23T06:00:24.414Z,44.60
2023-02-23T06:02:53.058Z,43.45
2023-02-23T06:05:19.633Z,41.88
2023-02-23T06:07:46.986Z,43.20
2023-02-23T06:10:14.452Z,40.25
2023-02-23T06:12:41.192Z,42.15
2023-02-23T06:15:08.537Z,42.67
2023-02-23T06:17:35.910Z,40.65
2023-02-23T06:20:05.072Z,41.75
2023-02-23T06:22:31.758Z,39.45
2023-02-23T06:24:58.463Z,40.58
2023-02-23T06:27:26.232Z,40.83
2023-02-23T06:29:52.871Z,38.35
2023-02-23T06:32:19.545Z,39.67
2023-02-23T06:34:48.806Z,39.55
2023-02-23T06:37:15.635Z,40.05
2023-02-23T06:39:42.275Z,40.00
2023-02-23T06:42:08.909Z,41.30
2023-02-23T06:44:36.363Z,43.45
2023-02-23T06:47:05.821Z,43.80
2023-02-23T06:49:32.695Z,41.30
2023-02-23T06:51:59.651Z,41.13
2023-02-23T06:54:26.567Z,40.67
2023-02-23T06:56:54.776Z,43.20
2023-02-23T06:59:21.514Z,42.38
2023-02-23T07:01:48.161Z,45.00
2023-02-23T07:04:16.763Z,43.55
2023-02-23T07:06:43.606Z,43.45
2023-02-23T07:09:10.314Z,43.08
2023-02-23T07:11:37.147Z,42.97
2023-02-23T07:14:03.808Z,43.00
2023-02-23T07:16:30.663Z,43.17
2023-02-23T07:18:57.469Z,44.30
2023-02-23T07:21:24.009Z,43.70
2023-02-23T07:23:50.739Z,42.85
2023-02-23T07:26:18.421Z,43.65
2023-02-23T07:28:45.252Z,43.63
2023-02-23T07:31:12.131Z,45.78
2023-02-23T07:33:38.777Z,42.92
2023-02-23T07:36:05.664Z,43.78
2023-02-23T07:38:32.403Z,45.40
2023-02-23T07:40:59.035Z,44.55
2023-02-23T07:43:25.670Z,45.05
2023-02-23T07:45:52.248Z,46.45
2023-02-23T07:48:19.360Z,45.42
2023-02-23T07:50:46.099Z,43.92
2023-02-23T07:53:13.244Z,42.55
2023-02-23T07:55:40.209Z,45.65
2023-02-23T07:58:07.650Z,45.55
2023-02-23T08:00:36.853Z,44.03
2023-02-23T08:03:03.394Z,44.75
2023-02-23T08:05:30.125Z,41.90
2023-02-23T08:07:58.104Z,43.05
2023-02-23T08:10:25.033Z,44.90
2023-02-23T08:12:51.953Z,45.60
2023-02-23T08:15:18.707Z,46.13
2023-02-23T08:17:45.348Z,46.53
2023-02-23T08:20:12.206Z,45.67
2023-02-23T08:22:48.752Z,45.67
2023-02-23T08:25:16.530Z,47.17
2023-02-23T08:27:43.156Z,45.30
2023-02-23T08:30:10.612Z,45.03
2023-02-23T08:32:37.292Z,42.55
2023-02-23T08:35:04.195Z,45.65
2023-02-23T08:37:30.932Z,42.08
2023-02-23T08:39:59.309Z,43.15
2023-02-23T08:42:26.042Z,43.65
2023-02-23T08:44:52.780Z,42.88
2023-02-23T08:47:23.520Z,41.72
2023-02-23T08:49:50.978Z,42.63
2023-02-23T08:52:18.013Z,42.63
2023-02-23T08:54:44.741Z,40.50
2023-02-23T08:57:12.673Z,41.03
2023-02-23T08:59:41.215Z,39.78
2023-02-23T09:02:14.803Z,38.92
2023-02-23T09:04:42.149Z,42.78
2023-02-23T09:07:13.194Z,41.33
2023-02-23T09:09:39.806Z,38.90
2023-02-23T09:12:06.771Z,39.25
2023-02-23T09:14:33.820Z,40.42
2023-02-23T09:17:00.562Z,39.20
2023-02-23T09:19:27.601Z,38.30
2023-02-23T09:21:54.238Z,36.22
2023-02-23T09:24:22.106Z,35.38
2023-02-23T09:26:49.771Z,36.88
2023-02-23T09:29:16.399Z,34.75
2023-02-23T09:31:43.841Z,37.65
2023-02-23T09:34:12.338Z,36.10
2023-02-23T09:36:39.174Z,37.15
2023-02-23T09:39:05.819Z,36.88
2023-02-23T09:42:01.650Z,35.65
2023-02-23T09:44:40.528Z,36.13
2023-02-23T09:47:31.123Z,35.08
2023-02-23T09:50:00.345Z,35.55
2023-02-23T09:53:03.627Z,34.72
2023-02-23T09:55:31.921Z,34.15
2023-02-23T09:58:08.087Z,35.28
2023-02-23T10:00:44.243Z,34.42
2023-02-23T10:03:17.950Z,34.85
2023-02-23T10:05:54.622Z,33.35
2023-02-23T10:08:32.520Z,35.53
2023-02-23T10:11:05.094Z,36.80
2023-02-23T10:13:38.694Z,36.95
2023-02-23T10:16:28.386Z,36.72
2023-02-23T10:19:06.373Z,33.53
2023-02-23T10:21:43.048Z,36.47
2023-02-23T10:24:19.682Z,36.22
2023-02-23T10:26:56.185Z,37.75
2023-02-23T10:29:28.967Z,37.22
2023-02-23T10:32:02.644Z,36.67
2023-02-23T10:34:31.257Z,36.08
2023-02-23T10:37:04.558Z,38.53
2023-02-23T10:39:32.815Z,39.03
2023-02-23T10:42:05.596Z,38.67
2023-02-23T10:44:32.695Z,39.17
2023-02-23T10:47:09.112Z,37.47
2023-02-23T10:49:43.730Z,39.17
2023-02-23T10:52:18.562Z,38.47
2023-02-23T10:54:48.169Z,37.78
2023-02-23T10:57:24.420Z,39.70
2023-02-23T11:00:20.358Z,37.85
2023-02-23T11:02:48.881Z,37.92
2023-02-23T11:05:36.874Z,38.85
2023-02-23T11:08:21.119Z,38.63
2023-02-23T11:11:19.297Z,38.30
2023-02-23T11:13:48.794Z,36.58
2023-02-23T11:16:19.726Z,35.45
2023-02-23T11:18:58.649Z,35.85
2023-02-23T11:21:33.780Z,37.00
2023-02-23T11:24:40.981Z,34.40
2023-02-23T11:27:21.049Z,34.42
2023-02-23T11:29:51.044Z,35.70
2023-02-23T11:32:33.591Z,36.17
2023-02-23T11:35:21.291Z,34.55
2023-02-23T11:37:49.574Z,34.70
2023-02-23T11:40:27.465Z,31.98
2023-02-23T11:43:00.038Z,34.45
2023-02-23T11:45:33.679Z,33.78
2023-02-23T11:48:05.596Z,33.63
2023-02-23T11:50:36.139Z,32.92
2023-02-23T11:53:13.819Z,34.17
2023-02-23T11:55:48.748Z,31.75
2023-02-23T11:58:35.795Z,33.20
2023-02-23T12:01:17.220Z,33.40
2023-02-23T12:03:48.204Z,31.40
2023-02-23T12:06:34.732Z,31.83
2023-02-23T12:09:29.449Z,32.55
2023-02-23T12:12:06.672Z,29.38
2023-02-23T12:14:52.065Z,31.20
2023-02-23T12:17:25.647Z,30.05
2023-02-23T12:20:18.495Z,30.63
2023-02-23T12:23:13.610Z,28.50
2023-02-23T12:25:53.622Z,29.98
2023-02-23T12:28:26.948Z,29.05
2023-02-23T12:31:23.566Z,27.90
2023-02-23T12:33:59.435Z,26.35
2023-02-23T12:36:33.347Z,26.15
2023-02-23T12:39:06.967Z,26.98
2023-02-23T12:41:40.554Z,25.20
2023-02-23T12:44:52.026Z,26.45
2023-02-23T12:47:53.790Z,25.98
2023-02-23T12:50:43.885Z,24.35
2023-02-23T12:53:25.982Z,26.17
2023-02-23T12:56:42.168Z,23.60
2023-02-23T12:59:14.469Z,25.47
2023-02-23T13:01:58.639Z,24.75
2023-02-23T13:04:52.567Z,21.17
2023-02-23T13:07:34.565Z,22.08
2023-02-23T13:10:16.349Z,21.20
2023-02-23T13:12:59.271Z,22.17
2023-02-23T13:15:35.137Z,19.58
2023-02-23T13:18:24.292Z,19.75
2023-02-23T13:20:56.257Z,18.02
2023-02-23T13:23:32.216Z,16.58
2023-02-23T13:26:14.400Z,17.85
2023-02-23T13:29:00.615Z,17.35
2023-02-23T13:31:33.659Z,16.33
2023-02-23T13:34:02.845Z,16.92
2023-02-23T13:36:33.212Z,16.83
2023-02-23T13:39:19.464Z,16.42
2023-02-23T13:42:05.489Z,17.13
2023-02-23T13:47:50.244Z,15.68
2023-02-23T13:50:28.088Z,15.73
2023-02-23T13:52:58.697Z,14.63
2023-02-23T13:55:40.083Z,15.05
2023-02-23T13:58:16.761Z,14.48
2023-02-23T14:00:44.640Z,14.55
2023-02-23T14:03:23.880Z,12.57
2023-02-23T14:05:56.726Z,12.50
2023-02-23T14:08:31.352Z,11.13
2023-02-23T14:10:58.303Z,11.55
2023-02-23T14:13:29.840Z,10.20
2023-02-23T14:16:19.576Z,10.63
2023-02-23T14:19:05.517Z,10.45
2023-02-23T14:24:14.785Z,9.07
2023-02-23T14:27:04.661Z,9.30
2023-02-23T14:29:40.200Z,9.73
2023-02-23T14:32:13.077Z,10.23
2023-02-23T14:34:43.273Z,11.25
2023-02-23T14:37:34.955Z,10.63
2023-02-23T14:40:24.827Z,9.88
2023-02-23T14:42:53.391Z,10.40
2023-02-23T14:45:28.746Z,11.65
2023-02-23T14:50:32.371Z,11.88
2023-02-23T14:53:01.449Z,11.68
2023-02-23T14:55:30.426Z,12.18
2023-02-23T14:57:58.199Z,11.02
2023-02-23T15:00:32.694Z,10.55
2023-02-23T15:03:02.317Z,11.20
2023-02-23T15:05:36.296Z,11.30
2023-02-23T15:08:08.380Z,10.50
2023-02-23T15:10:45.362Z,10.73
2023-02-23T15:13:29.400Z,9.98
2023-02-23T15:16:05.315Z,11.00
2023-02-23T15:18:38.240Z,10.57
2023-02-23T15:21:17.631Z,11.23
2023-02-23T15:23:47.883Z,10.30
2023-02-23T15:26:24.112Z,10.85
2023-02-23T15:28:51.617Z,10.05
2023-02-23T15:31:19.602Z,10.55
2023-02-23T15:33:48.687Z,10.13
2023-02-23T15:36:31.499Z,10.75
2023-02-23T15:39:01.354Z,9.82
2023-02-23T15:41:33.161Z,10.57
2023-02-23T15:44:20.387Z,10.68
2023-02-23T15:46:52.651Z,10.55
2023-02-23T15:49:21.051Z,10.35
2023-02-23T15:51:51.113Z,9.55
2023-02-23T15:54:23.620Z,9.85
2023-02-23T15:56:57.106Z,10.18
2023-02-23T15:59:30.875Z,10.65
2023-02-23T16:02:01.620Z,10.13
2023-02-23T16:04:33.718Z,11.32
2023-02-23T16:07:20.169Z,11.15
2023-02-23T16:09:55.184Z,10.85
2023-02-23T16:12:23.633Z,9.95
2023-02-23T16:14:56.941Z,11.20
2023-02-23T16:17:28.583Z,10.55
2023-02-23T16:20:07.812Z,11.68
2023-02-23T16:22:35.575Z,10.68
2023-02-23T16:25:07.433Z,11.18
2023-02-23T16:27:34.081Z,10.90
2023-02-23T16:30:25.997Z,11.07
2023-02-23T16:33:11.042Z,10.52
2023-02-23T16:35:41.914Z,10.18
2023-02-23T16:38:20.526Z,9.18
2023-02-23T16:40:48.816Z,10.68
2023-02-23T16:43:15.747Z,9.75
2023-02-23T16:45:43.453Z,10.32
2023-02-23T16:48:15.161Z,10.27
2023-02-23T16:50:42.523Z,11.38
2023-02-23T16:53:11.314Z,13.25
2023-02-23T16:55:40.906Z,12.13
2023-02-23T16:58:17.757Z,10.80
2023-02-23T17:00:44.730Z,10.68
2023-02-23T17:03:27.670Z,10.52
2023-02-23T17:05:58.892Z,10.68
2023-02-23T17:08:26.662Z,10.18
2023-02-23T17:10:55.959Z,10.55
2023-02-23T17:13:25.617Z,10.00
2023-02-23T17:15:56.325Z,11.02
2023-02-23T17:20:59.491Z,10.07
2023-02-23T17:23:30.108Z,9.70
2023-02-23T17:25:57.693Z,10.25
2023-02-23T17:28:25.756Z,9.40
2023-02-23T17:30:54.275Z,10.48
2023-02-23T17:33:21.098Z,9.63
2023-02-23T17:35:47.900Z,9.73
2023-02-23T17:38:15.167Z,9.75
2023-02-23T17:40:41.799Z,9.35
2023-02-23T17:43:09.733Z,10.10
2023-02-23T17:45:36.810Z,10.20
2023-02-23T17:48:03.589Z,9.65
2023-02-23T17:50:34.867Z,10.90
2023-02-23T17:53:01.444Z,10.57
2023-02-23T17:55:28.069Z,10.02
2023-02-23T17:57:54.709Z,10.63
2023-02-23T18:00:21.443Z,11.07
2023-02-23T18:02:48.260Z,10.82
2023-02-23T18:05:15.331Z,10.48
2023-02-23T18:07:42.678Z,11.15
2023-02-23T18:10:09.861Z,11.25
2023-02-23T18:12:36.778Z,10.60
2023-02-23T18:15:03.825Z,12.98
2023-02-23T18:17:32.500Z,13.93
2023-02-23T18:20:00.346Z,14.50
2023-02-23T18:22:27.004Z,13.52
2023-02-23T18:24:53.641Z,14.32
2023-02-23T18:27:20.172Z,14.15
2023-02-23T18:29:46.706Z,14.48
2023-02-23T18:32:13.534Z,14.10
2023-02-23T18:34:40.297Z,14.38
2023-02-23T18:37:10.240Z,12.98
2023-02-23T18:39:37.246Z,11.45
2023-02-23T18:42:04.477Z,8.48
2023-02-23T18:44:32.898Z,9.45
2023-02-23T18:47:00.645Z,7.88
2023-02-23T18:49:27.283Z,8.23
2023-02-23T18:51:54.529Z,7.30
2023-02-23T18:54:22.515Z,7.97
2023-02-23T18:56:50.743Z,6.78
2023-02-23T18:59:17.309Z,5.75
2023-02-23T19:01:46.720Z,5.68
2023-02-23T19:04:13.753Z,6.07
2023-02-23T19:06:43.488Z,6.88
2023-02-23T19:09:13.268Z,7.15
2023-02-23T19:11:42.470Z,6.95
2023-02-23T19:14:15.872Z,6.15
2023-02-23T19:16:43.842Z,7.32
2023-02-23T19:19:10.574Z,7.82
2023-02-23T19:21:37.815Z,6.55
2023-02-23T19:24:30.769Z,6.35
2023-02-23T19:26:57.404Z,5.97
2023-02-23T19:29:24.065Z,6.78
2023-02-23T19:31:50.831Z,6.32
2023-02-23T19:34:17.625Z,5.60
2023-02-23T19:36:47.148Z,5.38
2023-02-23T19:39:15.548Z,4.70
2023-02-23T19:41:44.557Z,5.18
2023-02-23T19:44:11.236Z,5.50
2023-02-23T19:46:39.901Z,5.55
2023-02-23T19:49:06.765Z,6.65
2023-02-23T19:51:33.420Z,4.95
2023-02-23T19:54:00.148Z,5.07
2023-02-23T19:56:30.592Z,4.63
2023-02-23T19:58:59.459Z,4.28
2023-02-23T20:01:27.825Z,4.10
2023-02-23T20:03:55.464Z,4.63
2023-02-23T20:06:27.739Z,4.95
2023-02-23T20:08:55.395Z,4.45
2023-02-23T20:11:23.166Z,4.82
2023-02-23T20:13:51.370Z,4.72
2023-02-23T20:16:18.167Z,4.05
2023-02-23T20:18:45.040Z,3.75
2023-02-23T20:21:17.790Z,4.35
2023-02-23T20:23:46.211Z,3.83
2023-02-23T20:26:16.104Z,3.45
2023-02-23T20:28:42.950Z,3.65
2023-02-23T20:31:20.912Z,3.45
2023-02-23T20:33:51.477Z,3.53
2023-02-23T20:36:19.957Z,3.17
2023-02-23T20:38:50.076Z,3.67
2023-02-23T20:41:17.341Z,3.92
2023-02-23T20:43:44.878Z,3.78
2023-02-23T20:46:17.027Z,3.17
2023-02-23T20:48:43.909Z,4.18
2023-02-23T20:51:15.118Z,4.10
2023-02-23T20:53:45.260Z,3.35
2023-02-23T20:56:13.837Z,4.00
2023-02-23T20:58:40.576Z,3.42
2023-02-23T21:01:22.717Z,3.47
2023-02-23T21:03:53.318Z,3.60
2023-02-23T21:06:22.918Z,3.60
2023-02-23T21:08:50.682Z,3.60
2023-02-23T21:11:19.782Z,3.85
2023-02-23T21:13:46.716Z,3.30
2023-02-23T21:16:16.509Z,3.45
2023-02-23T21:18:43.475Z,4.38
2023-02-23T21:21:11.337Z,4.45
2023-02-23T21:23:39.405Z,4.15
2023-02-23T21:26:16.090Z,3.90
2023-02-23T21:28:44.662Z,4.03
2023-02-23T21:31:12.872Z,3.95
2023-02-23T21:33:41.315Z,3.83
2023-02-23T21:36:10.632Z,3.95
2023-02-23T21:38:43.602Z,5.30
2023-02-23T21:41:12.787Z,4.45
2023-02-23T21:43:42.006Z,4.00
2023-02-23T21:46:11.314Z,3.70
2023-02-23T21:48:37.930Z,3.97
2023-02-23T21:51:09.272Z,3.83
2023-02-23T21:53:37.579Z,4.15
2023-02-23T21:56:12.601Z,3.47
2023-02-23T21:58:43.517Z,3.72
2023-02-23T22:01:15.756Z,3.45
2023-02-23T22:03:45.036Z,4.35
2023-02-23T22:06:16.744Z,3.38
2023-02-23T22:08:44.837Z,3.22
2023-02-23T22:11:18.089Z,3.10
2023-02-23T22:13:46.066Z,4.78
2023-02-23T22:16:14.651Z,3.47
2023-02-23T22:18:42.379Z,4.15
2023-02-23T22:21:12.032Z,4.05
2023-02-23T22:23:39.963Z,4.28
2023-02-23T22:26:08.064Z,5.68
2023-02-23T22:28:34.998Z,4.32
2023-02-23T22:31:07.104Z,3.40
2023-02-23T22:33:35.237Z,3.95
2023-02-23T22:36:06.820Z,3.67
2023-02-23T22:38:37.725Z,4.20
2023-02-23T22:41:11.012Z,3.13
2023-02-23T22:43:39.199Z,3.58
2023-02-23T22:46:07.682Z,3.17
2023-02-23T22:48:35.757Z,3.58
2023-02-23T22:51:02.889Z,3.28
2023-02-23T22:53:29.626Z,3.03
2023-02-23T22:55:56.980Z,3.22
2023-02-23T22:58:26.475Z,4.40
2023-02-23T23:01:03.709Z,4.63
2023-02-23T23:03:35.804Z,3.45
2023-02-23T23:06:05.446Z,3.65
2023-02-23T23:08:38.828Z,3.40
2023-02-23T23:11:18.818Z,3.00
2023-02-23T23:13:50.939Z,3.40
2023-02-23T23:16:32.203Z,3.58
2023-02-23T23:19:05.162Z,3.13
2023-02-23T23:21:33.996Z,3.38
2023-02-23T23:24:06.511Z,3.75
2023-02-23T23:26:39.798Z,3.35
2023-02-23T23:29:11.361Z,2.97
2023-02-23T23:31:40.584Z,4.05
2023-02-23T23:34:09.902Z,3.88
2023-02-23T23:36:43.088Z,3.30
2023-02-23T23:39:16.342Z,3.65
2023-02-23T23:41:44.668Z,4.50
2023-02-23T23:44:13.243Z,4.00
2023-02-23T23:46:43.062Z,3.55
2023-02-23T23:49:12.782Z,4.03
2023-02-23T23:51:44.887Z,3.58
2023-02-23T23:54:15.064Z,4.65
2023-02-23T23:56:43.695Z,3.38
2023-02-23T23:59:17.334Z,4.78
